Main page
Satellite images 15-day forecastsClimateMarine weather Cyclones Lightning AirportsFAQ Newsletter About
Weather : Europe Africa North America South America Asia Australia-Oceania Others
Languages Contact

Nice, France

Côte d'Azur

latitude: 43-39N, longitude: 007-12E, elevation: 4 m


METAR: LFMN 021100Z 18006KT 9999 FEW033 26/16 Q1009 NOSIG
short-TAF: out of date (51053 hours)
long-TAF: LFMN 021100Z 0212/0318 15008KT CAVOK BECMG 0218/0220 34006KT BECMG 0308/0310 16010KT

Time: 13:31 (11:31 UTC)

Current weather observation

The report was made 31 minutes ago, at 11:00 UTC  
Wind 06 kt from the South
Temperature 26°C
Humidity 54%
Pressure 1009 hPa
Visibility 10 km or more
Few clouds at a height of 3300 ft

Change units

Forecast

The report was made 16 minutes ago, at 11:15 UTC  
Forecast valid from 02 at 12 UTC to 03 at 18 UTC
Wind 08 kt from the South/Southeast
Visibility 10 km or more
no clouds below 1500 m and no cumulonimbus
Becoming
from 02 at 18 UTC to 02 at 20 UTC
Wind 06 kt from the North/Northwest
Becoming
from 03 at 08 UTC to 03 at 10 UTC
Wind 10 kt from the South/Southeast
The information on this site is subject to a disclaimer
Weather : Europe Africa North America South America Asia Australia-Oceania Others
Satellite images 15-day forecastsClimateMarine weather Cyclones Lightning AirportsFAQ Languages Contact Newsletter About